createdAt,value
2023-03-04T00:00:46.518Z,8.87
2023-03-04T00:03:32.472Z,8.83
2023-03-04T00:06:18.517Z,8.79
2023-03-04T00:09:04.817Z,8.88
2023-03-04T00:11:51.836Z,8.88
2023-03-04T00:14:37.555Z,8.86
2023-03-04T00:17:24.157Z,8.82
2023-03-04T00:20:10.833Z,8.83
2023-03-04T00:22:56.904Z,8.80
2023-03-04T00:25:43.643Z,8.76
2023-03-04T00:28:29.790Z,8.68
2023-03-04T00:31:15.594Z,8.69
2023-03-04T00:34:01.278Z,8.68
2023-03-04T00:36:47.018Z,8.69
2023-03-04T00:39:32.814Z,8.71
2023-03-04T00:42:19.079Z,8.72
2023-03-04T00:45:06.279Z,8.74
2023-03-04T00:47:52.209Z,8.75
2023-03-04T00:50:38.472Z,8.75
2023-03-04T00:53:24.137Z,8.79
2023-03-04T00:56:11.877Z,8.74
2023-03-04T00:58:57.583Z,8.77
2023-03-04T01:01:44.553Z,8.76
2023-03-04T01:04:30.289Z,8.77
2023-03-04T01:07:16.322Z,8.74
2023-03-04T01:10:05.972Z,8.72
2023-03-04T01:12:52.740Z,8.74
2023-03-04T01:15:43.023Z,8.74
2023-03-04T01:18:28.978Z,8.70
2023-03-04T01:21:21.557Z,8.63
2023-03-04T01:24:07.537Z,8.60
2023-03-04T01:26:54.534Z,8.55
2023-03-04T01:29:41.065Z,8.52
2023-03-04T01:32:41.378Z,8.48
2023-03-04T01:35:27.496Z,8.46
2023-03-04T01:38:13.438Z,8.44
2023-03-04T01:40:59.405Z,8.51
2023-03-04T01:43:45.377Z,8.48
2023-03-04T01:46:31.787Z,8.47
2023-03-04T01:49:17.883Z,8.45
2023-03-04T01:52:04.044Z,8.40
2023-03-04T01:54:50.936Z,8.38
2023-03-04T01:57:36.844Z,8.35
2023-03-04T02:00:31.942Z,8.42
2023-03-04T02:03:22.328Z,8.43
2023-03-04T02:06:08.367Z,8.45
2023-03-04T02:08:54.289Z,8.47
2023-03-04T02:11:41.242Z,8.47
2023-03-04T02:14:27.111Z,8.52
2023-03-04T02:17:13.556Z,8.49
2023-03-04T02:20:16.102Z,8.44
2023-03-04T02:23:12.925Z,8.47
2023-03-04T02:26:26.758Z,8.47
2023-03-04T02:29:15.381Z,8.47
2023-03-04T02:32:01.625Z,8.47
2023-03-04T02:34:49.444Z,8.42
2023-03-04T02:37:35.454Z,8.42
2023-03-04T02:40:26.646Z,8.37
2023-03-04T02:43:12.947Z,8.33
2023-03-04T02:45:58.708Z,8.31
2023-03-04T02:48:45.764Z,8.26
2023-03-04T02:51:31.670Z,8.22
2023-03-04T02:54:21.388Z,8.22
2023-03-04T02:57:10.323Z,8.22
2023-03-04T02:59:58.789Z,8.26
2023-03-04T03:02:46.965Z,8.26
2023-03-04T03:05:36.572Z,8.24
2023-03-04T03:08:23.098Z,8.33
2023-03-04T03:11:09.546Z,8.33
2023-03-04T03:13:56.643Z,8.37
2023-03-04T03:16:43.848Z,8.37
2023-03-04T03:19:30.303Z,8.37
2023-03-04T03:22:16.207Z,8.39
2023-03-04T03:25:01.916Z,8.40
2023-03-04T03:27:47.991Z,8.41
2023-03-04T03:30:35.603Z,8.38
2023-03-04T03:33:24.419Z,8.39
2023-03-04T03:36:11.492Z,8.37
2023-03-04T03:38:57.418Z,8.35
2023-03-04T03:41:43.372Z,8.34
2023-03-04T03:44:29.422Z,8.35
2023-03-04T03:47:19.742Z,8.32
2023-03-04T03:50:08.990Z,8.30
2023-03-04T03:52:54.862Z,8.34
2023-03-04T03:55:40.959Z,8.30
2023-03-04T03:58:27.105Z,8.30
2023-03-04T04:01:12.862Z,8.26
2023-03-04T04:03:58.685Z,8.27
2023-03-04T04:06:44.777Z,8.29
2023-03-04T04:09:30.749Z,8.22
2023-03-04T04:12:17.057Z,8.28
2023-03-04T04:15:03.087Z,8.28
2023-03-04T04:17:52.253Z,8.28
2023-03-04T04:20:38.987Z,8.29
2023-03-04T04:23:24.801Z,8.28
2023-03-04T04:26:10.441Z,8.29
2023-03-04T04:28:56.150Z,8.26
2023-03-04T04:31:42.090Z,8.21
2023-03-04T04:34:28.114Z,8.20
2023-03-04T04:37:13.762Z,8.18
2023-03-04T04:39:59.479Z,8.21
2023-03-04T04:42:47.788Z,8.19
2023-03-04T04:45:34.341Z,8.15
2023-03-04T04:48:20.367Z,8.11
2023-03-04T04:51:06.335Z,8.04
2023-03-04T04:53:52.091Z,7.99
2023-03-04T04:56:37.772Z,7.96
2023-03-04T04:59:23.485Z,7.99
2023-03-04T05:02:09.195Z,8.02
2023-03-04T05:04:55.151Z,8.04
2023-03-04T05:07:41.849Z,8.09
2023-03-04T05:10:27.919Z,8.10
2023-03-04T05:13:13.670Z,8.10
2023-03-04T05:15:59.872Z,8.08
2023-03-04T05:18:46.150Z,8.09
2023-03-04T05:21:31.876Z,8.10
2023-03-04T05:24:17.546Z,8.06
2023-03-04T05:27:03.398Z,8.13
2023-03-04T05:29:49.251Z,8.16
2023-03-04T05:32:35.006Z,8.20
2023-03-04T05:35:20.615Z,8.23
2023-03-04T05:38:08.687Z,8.24
2023-03-04T05:40:59.477Z,8.27
2023-03-04T05:43:45.725Z,8.27
2023-03-04T05:46:40.086Z,8.25
2023-03-04T05:49:26.930Z,8.20
2023-03-04T05:52:12.820Z,8.17
2023-03-04T05:54:58.757Z,8.21
2023-03-04T05:57:44.750Z,8.19
2023-03-04T06:00:33.448Z,8.15
2023-03-04T06:03:21.655Z,8.18
2023-03-04T06:06:07.762Z,8.20
2023-03-04T06:08:55.771Z,8.20
2023-03-04T06:11:41.702Z,8.19
2023-03-04T06:14:27.800Z,8.19
2023-03-04T06:17:13.859Z,8.27
2023-03-04T06:20:06.464Z,8.27
2023-03-04T06:22:52.625Z,8.25
2023-03-04T06:25:39.341Z,8.30
2023-03-04T06:28:25.105Z,8.32
2023-03-04T06:31:12.209Z,8.33
2023-03-04T06:33:58.003Z,8.36
2023-03-04T06:36:43.823Z,8.38
2023-03-04T06:39:29.768Z,8.39
2023-03-04T06:42:15.592Z,8.42
2023-03-04T06:45:02.013Z,8.44
2023-03-04T06:47:48.092Z,8.44
2023-03-04T06:50:33.966Z,8.44
2023-03-04T06:53:19.784Z,8.41
2023-03-04T06:56:06.191Z,8.37
2023-03-04T06:58:52.444Z,8.45
2023-03-04T07:01:38.588Z,8.46
2023-03-04T07:04:24.856Z,8.44
2023-03-04T07:07:11.776Z,8.45
2023-03-04T07:09:57.543Z,8.47
2023-03-04T07:12:43.468Z,8.44
2023-03-04T07:15:29.904Z,8.43
2023-03-04T07:18:15.976Z,8.40
2023-03-04T07:21:01.924Z,8.40
2023-03-04T07:23:47.781Z,8.39
2023-03-04T07:26:33.556Z,8.39
2023-03-04T07:29:19.340Z,8.39
2023-03-04T07:32:09.502Z,8.40
2023-03-04T07:34:55.461Z,8.42
2023-03-04T07:37:41.202Z,8.44
2023-03-04T07:40:26.999Z,8.38
2023-03-04T07:43:13.462Z,8.40
2023-03-04T07:46:01.787Z,8.43
2023-03-04T07:48:47.688Z,8.48
2023-03-04T07:51:35.167Z,8.54
2023-03-04T07:54:21.727Z,8.64
2023-03-04T07:57:07.421Z,8.71
2023-03-04T07:59:53.181Z,8.75
2023-03-04T08:02:39.762Z,8.86
2023-03-04T08:05:25.800Z,8.94
2023-03-04T08:08:11.862Z,8.98
2023-03-04T08:10:58.161Z,9.11
2023-03-04T08:13:44.918Z,9.18
2023-03-04T08:16:31.019Z,9.26
2023-03-04T08:19:16.977Z,9.33
2023-03-04T08:22:03.415Z,9.26
2023-03-04T08:24:49.469Z,9.30
2023-03-04T08:27:37.280Z,9.29
2023-03-04T08:30:23.306Z,9.28
2023-03-04T08:33:10.378Z,9.32
2023-03-04T08:35:56.906Z,9.32
2023-03-04T08:38:43.198Z,9.38
2023-03-04T08:41:29.514Z,9.41
2023-03-04T08:44:15.866Z,9.39
2023-03-04T08:47:01.707Z,9.38
2023-03-04T08:49:47.422Z,9.36
2023-03-04T08:52:33.495Z,9.36
2023-03-04T08:55:20.357Z,9.44
2023-03-04T08:58:07.558Z,9.48
2023-03-04T09:00:53.173Z,9.55
2023-03-04T09:03:39.902Z,9.63
2023-03-04T09:06:26.068Z,9.73
2023-03-04T09:09:12.184Z,9.80
2023-03-04T09:11:57.897Z,9.85
2023-03-04T09:14:43.602Z,9.95
2023-03-04T09:17:29.500Z,9.99
2023-03-04T09:20:15.825Z,10.04
2023-03-04T09:23:02.975Z,10.03
2023-03-04T09:25:49.691Z,9.99
2023-03-04T09:28:35.690Z,9.99
2023-03-04T09:31:22.063Z,10.00
2023-03-04T09:34:08.205Z,9.97
2023-03-04T09:36:54.239Z,9.92
2023-03-04T09:39:40.228Z,9.88
2023-03-04T09:42:31.584Z,9.82
2023-03-04T09:45:23.662Z,9.79
2023-03-04T09:48:13.340Z,9.77
2023-03-04T09:51:23.610Z,9.79
2023-03-04T09:54:19.024Z,9.83
2023-03-04T09:57:40.122Z,9.80
2023-03-04T10:00:58.423Z,9.78
2023-03-04T10:03:52.322Z,9.76
2023-03-04T10:06:40.564Z,9.74
2023-03-04T10:09:56.193Z,9.72
2023-03-04T10:12:44.337Z,9.74
2023-03-04T10:15:44.195Z,9.77
2023-03-04T10:19:00.914Z,9.77
2023-03-04T10:21:48.898Z,9.85
2023-03-04T10:24:35.540Z,9.96
2023-03-04T10:27:21.486Z,10.07
2023-03-04T10:30:32.989Z,10.18
2023-03-04T10:33:24.388Z,10.30
2023-03-04T10:36:25.492Z,10.39
2023-03-04T10:39:19.006Z,10.48
2023-03-04T10:42:24.178Z,10.58
2023-03-04T10:45:22.303Z,10.68
2023-03-04T10:48:18.885Z,10.72
2023-03-04T10:51:16.890Z,10.80
2023-03-04T10:54:20.470Z,10.95
2023-03-04T10:57:16.763Z,11.07
2023-03-04T11:00:23.183Z,11.15
2023-03-04T11:03:37.253Z,11.23
2023-03-04T11:06:23.651Z,11.22
2023-03-04T11:09:22.470Z,11.24
2023-03-04T11:12:14.053Z,11.23
2023-03-04T11:15:02.181Z,11.24
2023-03-04T11:17:52.752Z,11.28
2023-03-04T11:20:48.519Z,11.31
2023-03-04T11:23:44.575Z,11.43
2023-03-04T11:26:48.736Z,11.60
2023-03-04T11:29:55.736Z,11.77
2023-03-04T11:32:46.286Z,11.94
2023-03-04T11:35:43.191Z,12.07
2023-03-04T11:38:33.598Z,12.21
2023-03-04T11:41:25.644Z,12.31
2023-03-04T11:44:14.417Z,12.44
2023-03-04T11:47:08.959Z,12.60
2023-03-04T11:50:07.044Z,12.71
2023-03-04T11:53:02.631Z,12.89
2023-03-04T11:56:37.315Z,13.09
2023-03-04T11:59:36.967Z,13.26
2023-03-04T12:02:32.511Z,13.31
2023-03-04T12:05:33.865Z,13.43
2023-03-04T12:08:22.859Z,13.53
2023-03-04T12:11:43.689Z,13.57
2023-03-04T12:14:51.233Z,13.57
2023-03-04T12:17:59.788Z,13.51
2023-03-04T12:20:55.949Z,13.42
2023-03-04T12:23:50.796Z,13.28
2023-03-04T12:26:55.590Z,13.07
2023-03-04T12:29:57.124Z,12.87
2023-03-04T12:32:51.974Z,12.68
2023-03-04T12:35:42.175Z,12.47
2023-03-04T12:38:50.932Z,12.27
2023-03-04T12:41:58.381Z,12.11
2023-03-04T12:45:20.786Z,11.97
2023-03-04T12:48:14.598Z,11.90
2023-03-04T12:51:35.551Z,11.79
2023-03-04T12:54:26.189Z,11.70
2023-03-04T12:57:21.641Z,11.56
2023-03-04T13:00:26.469Z,11.49
2023-03-04T13:03:35.596Z,11.42
2023-03-04T13:06:57.899Z,11.34
2023-03-04T13:10:01.924Z,11.32
2023-03-04T13:12:58.218Z,11.32
2023-03-04T13:15:44.112Z,11.32
2023-03-04T13:18:31.476Z,11.29
2023-03-04T13:21:24.004Z,11.27
2023-03-04T13:24:44.964Z,11.22
2023-03-04T13:27:51.402Z,11.18
2023-03-04T13:30:38.284Z,11.23
2023-03-04T13:33:24.075Z,11.23
2023-03-04T13:36:30.062Z,11.17
2023-03-04T13:39:15.985Z,11.10
2023-03-04T13:42:02.262Z,11.02
2023-03-04T13:44:47.944Z,10.95
2023-03-04T13:47:43.681Z,10.85
2023-03-04T13:50:36.491Z,10.87
2023-03-04T13:53:34.471Z,10.86
2023-03-04T13:56:32.013Z,10.88
2023-03-04T13:59:29.882Z,10.78
2023-03-04T14:02:19.051Z,10.84
2023-03-04T14:05:05.253Z,10.83
2023-03-04T14:07:51.331Z,10.77
2023-03-04T14:10:38.189Z,10.80
2023-03-04T14:13:24.755Z,10.83
2023-03-04T14:16:10.804Z,10.85
2023-03-04T14:19:02.011Z,10.89
2023-03-04T14:21:48.244Z,10.95
2023-03-04T14:24:34.115Z,11.01
2023-03-04T14:27:19.673Z,11.08
2023-03-04T14:30:31.911Z,11.17
2023-03-04T14:33:31.751Z,11.32
2023-03-04T14:36:20.470Z,11.37
2023-03-04T14:39:07.374Z,11.41
2023-03-04T14:41:56.233Z,11.43
2023-03-04T14:44:48.475Z,11.47
2023-03-04T14:47:39.035Z,11.56
2023-03-04T14:50:25.103Z,11.65
2023-03-04T14:53:15.715Z,11.71
2023-03-04T14:56:06.669Z,11.72
2023-03-04T14:58:54.985Z,11.73
2023-03-04T15:01:41.924Z,11.64
2023-03-04T15:04:28.044Z,11.61
2023-03-04T15:07:19.832Z,11.53
2023-03-04T15:10:09.403Z,11.42
2023-03-04T15:12:57.517Z,11.23
2023-03-04T15:15:45.380Z,11.09
2023-03-04T15:18:33.302Z,11.03
2023-03-04T15:21:30.077Z,10.88
2023-03-04T15:24:16.213Z,10.77
2023-03-04T15:27:07.734Z,10.71
2023-03-04T15:29:56.348Z,10.65
2023-03-04T15:32:42.478Z,10.55
2023-03-04T15:35:30.539Z,10.46
2023-03-04T15:38:16.805Z,10.43
2023-03-04T15:41:03.241Z,10.37
2023-03-04T15:43:50.266Z,10.28
2023-03-04T15:46:37.661Z,10.23
2023-03-04T15:49:23.820Z,10.17
2023-03-04T15:52:19.728Z,10.09
2023-03-04T15:55:07.637Z,10.06
2023-03-04T15:58:00.424Z,10.03
2023-03-04T16:00:46.178Z,10.01
2023-03-04T16:03:32.082Z,9.95
2023-03-04T16:06:23.975Z,9.96
2023-03-04T16:09:14.709Z,9.95
2023-03-04T16:12:02.138Z,9.93
2023-03-04T16:14:49.353Z,9.92
2023-03-04T16:17:35.363Z,9.97
2023-03-04T16:20:24.635Z,9.98
2023-03-04T16:23:13.721Z,9.98
2023-03-04T16:26:00.993Z,9.94
2023-03-04T16:28:46.849Z,10.01
2023-03-04T16:31:32.643Z,10.05
2023-03-04T16:34:18.616Z,10.07
2023-03-04T16:37:13.941Z,10.04
2023-03-04T16:40:00.205Z,10.06
2023-03-04T16:42:46.056Z,9.99
2023-03-04T16:45:32.636Z,10.08
2023-03-04T16:48:20.333Z,10.08
2023-03-04T16:51:15.291Z,10.07
2023-03-04T16:54:01.424Z,10.07
2023-03-04T16:56:48.454Z,10.05
2023-03-04T16:59:34.427Z,10.05
2023-03-04T17:02:22.380Z,10.04
2023-03-04T17:05:10.233Z,10.03
2023-03-04T17:07:56.330Z,9.99
2023-03-04T17:10:42.356Z,9.97
2023-03-04T17:13:29.235Z,9.92
2023-03-04T17:16:18.336Z,9.91
2023-03-04T17:19:04.480Z,9.83
2023-03-04T17:21:57.498Z,9.86
2023-03-04T17:24:43.163Z,9.85
2023-03-04T17:27:30.395Z,9.84
2023-03-04T17:30:16.583Z,9.75
2023-03-04T17:33:02.683Z,9.82
2023-03-04T17:35:48.796Z,9.82
2023-03-04T17:38:34.924Z,9.82
2023-03-04T17:41:21.695Z,9.77
2023-03-04T17:44:10.630Z,9.76
2023-03-04T17:46:57.624Z,9.74
2023-03-04T17:49:43.933Z,9.75
2023-03-04T17:52:29.666Z,9.73
2023-03-04T17:55:15.618Z,9.75
2023-03-04T17:58:01.569Z,9.75
2023-03-04T18:00:47.980Z,9.76
2023-03-04T18:03:34.054Z,9.75
2023-03-04T18:06:22.912Z,9.75
2023-03-04T18:09:09.530Z,9.77
2023-03-04T18:11:55.577Z,9.76
2023-03-04T18:14:41.680Z,9.74
2023-03-04T18:17:28.456Z,9.72
2023-03-04T18:20:15.090Z,9.68
2023-03-04T18:23:01.064Z,9.62
2023-03-04T18:25:47.371Z,9.58
2023-03-04T18:28:33.740Z,9.53
2023-03-04T18:31:26.176Z,9.48
2023-03-04T18:34:12.826Z,9.43
2023-03-04T18:36:58.783Z,9.40
2023-03-04T18:39:44.708Z,9.36
2023-03-04T18:42:31.675Z,9.32
2023-03-04T18:45:17.723Z,9.28
2023-03-04T18:48:04.827Z,9.27
2023-03-04T18:50:52.605Z,9.21
2023-03-04T18:53:40.459Z,9.25
2023-03-04T18:56:34.655Z,9.26
2023-03-04T18:59:22.467Z,9.31
2023-03-04T19:02:32.536Z,9.33
2023-03-04T19:05:26.700Z,9.38
2023-03-04T19:08:13.280Z,9.36
2023-03-04T19:11:00.296Z,9.38
2023-03-04T19:13:47.679Z,9.38
2023-03-04T19:16:33.720Z,9.37
2023-03-04T19:19:19.819Z,9.36
2023-03-04T19:22:06.946Z,9.36
2023-03-04T19:24:55.020Z,9.38
2023-03-04T19:27:41.004Z,9.38
2023-03-04T19:30:26.957Z,9.40
2023-03-04T19:33:12.776Z,9.37
2023-03-04T19:36:01.795Z,9.31
2023-03-04T19:38:47.632Z,9.32
2023-03-04T19:41:34.674Z,9.32
2023-03-04T19:44:21.382Z,9.31
2023-03-04T19:47:11.072Z,9.31
2023-03-04T19:49:57.481Z,9.34
2023-03-04T19:52:43.691Z,9.32
2023-03-04T19:55:29.597Z,9.28
2023-03-04T19:58:16.607Z,9.24
2023-03-04T20:01:02.481Z,9.22
2023-03-04T20:03:48.243Z,9.26
2023-03-04T20:06:37.083Z,9.24
2023-03-04T20:09:27.806Z,9.20
2023-03-04T20:12:14.022Z,9.14
2023-03-04T20:15:00.530Z,9.13
2023-03-04T20:17:46.754Z,9.14
2023-03-04T20:20:32.780Z,9.14
2023-03-04T20:23:20.570Z,9.12
2023-03-04T20:26:06.618Z,9.16
2023-03-04T20:28:52.633Z,9.16
2023-03-04T20:31:39.562Z,9.16
2023-03-04T20:34:27.229Z,9.13
2023-03-04T20:37:14.024Z,9.10
2023-03-04T20:40:00.080Z,9.13
2023-03-04T20:42:47.257Z,9.09
2023-03-04T20:45:33.986Z,9.07
2023-03-04T20:48:21.019Z,9.07
2023-03-04T20:51:06.687Z,9.05
2023-03-04T20:53:55.119Z,9.06
2023-03-04T20:56:41.439Z,8.96
2023-03-04T20:59:28.124Z,9.01
2023-03-04T21:02:15.999Z,8.99
2023-03-04T21:05:01.962Z,9.00
2023-03-04T21:07:47.995Z,9.01
2023-03-04T21:10:35.592Z,9.02
2023-03-04T21:13:23.505Z,9.04
2023-03-04T21:16:15.300Z,9.04
2023-03-04T21:19:01.351Z,8.98
2023-03-04T21:21:48.587Z,8.97
2023-03-04T21:24:36.265Z,8.95
2023-03-04T21:27:22.234Z,8.94
2023-03-04T21:30:14.627Z,8.94
2023-03-04T21:33:03.766Z,8.95
2023-03-04T21:35:51.325Z,8.97
2023-03-04T21:38:38.680Z,9.01
2023-03-04T21:41:25.784Z,9.00
2023-03-04T21:44:22.609Z,9.00
2023-03-04T21:47:16.976Z,8.96
2023-03-04T21:50:02.720Z,8.95
2023-03-04T21:52:49.087Z,8.89
2023-03-04T21:55:35.252Z,8.84
2023-03-04T21:58:21.173Z,8.76
2023-03-04T22:01:19.249Z,8.84
2023-03-04T22:04:05.697Z,8.89
2023-03-04T22:06:53.654Z,8.83
2023-03-04T22:09:39.880Z,8.91
2023-03-04T22:12:26.428Z,8.90
2023-03-04T22:15:12.696Z,8.93
2023-03-04T22:17:58.705Z,8.95
2023-03-04T22:20:48.191Z,8.95
2023-03-04T22:23:39.745Z,8.96
2023-03-04T22:26:31.919Z,8.93
2023-03-04T22:29:18.310Z,8.92
2023-03-04T22:32:04.582Z,8.92
2023-03-04T22:34:50.819Z,8.91
2023-03-04T22:37:37.378Z,8.86
2023-03-04T22:40:23.798Z,8.84
2023-03-04T22:43:10.584Z,8.85
2023-03-04T22:46:00.522Z,8.83
2023-03-04T22:48:47.930Z,8.81
2023-03-04T22:51:33.925Z,8.77
2023-03-04T22:54:20.717Z,8.74
2023-03-04T22:57:07.490Z,8.73
2023-03-04T22:59:53.938Z,8.74
2023-03-04T23:02:39.749Z,8.72
2023-03-04T23:05:25.809Z,8.75
2023-03-04T23:08:11.524Z,8.74
2023-03-04T23:10:57.603Z,8.73
2023-03-04T23:13:44.100Z,8.68
2023-03-04T23:16:33.467Z,8.69
2023-03-04T23:19:19.416Z,8.63
2023-03-04T23:22:05.262Z,8.65
2023-03-04T23:24:52.549Z,8.63
2023-03-04T23:27:39.653Z,8.64
2023-03-04T23:30:25.865Z,8.66
2023-03-04T23:33:11.911Z,8.71
2023-03-04T23:35:57.721Z,8.73
2023-03-04T23:38:45.475Z,8.76
2023-03-04T23:41:32.978Z,8.78
2023-03-04T23:44:19.009Z,8.79
2023-03-04T23:47:04.926Z,8.76
2023-03-04T23:49:50.866Z,8.76
2023-03-04T23:52:36.729Z,8.73
2023-03-04T23:55:22.754Z,8.73
2023-03-04T23:58:08.430Z,8.70
